createdAt,value
2018-03-06T00:01:48.738Z,41.93
2018-03-06T00:04:17.128Z,42.00
2018-03-06T00:06:45.393Z,41.77
2018-03-06T00:09:14.466Z,36.73
2018-03-06T00:11:42.823Z,40.37
2018-03-06T00:14:11.063Z,51.60
2018-03-06T00:16:40.095Z,40.87
2018-03-06T00:19:08.416Z,46.43
2018-03-06T00:21:37.456Z,49.07
2018-03-06T00:24:06.175Z,51.00
2018-03-06T00:26:34.467Z,47.13
2018-03-06T00:29:02.756Z,39.23
2018-03-06T00:31:31.055Z,41.90
2018-03-06T00:34:00.103Z,39.53
2018-03-06T00:36:28.402Z,44.37
2018-03-06T00:38:56.681Z,44.80
2018-03-06T00:41:24.999Z,45.93
2018-03-06T00:43:54.875Z,49.23
2018-03-06T00:46:23.152Z,54.03
2018-03-06T00:48:51.544Z,48.17
2018-03-06T00:51:19.919Z,48.20
2018-03-06T00:53:48.986Z,41.17
2018-03-06T00:56:17.260Z,42.57
2018-03-06T00:58:45.683Z,43.90
2018-03-06T01:01:13.972Z,48.40
2018-03-06T01:03:42.265Z,53.47
2018-03-06T01:06:10.571Z,43.23
2018-03-06T01:08:38.863Z,47.37
2018-03-06T01:11:07.165Z,50.27
2018-03-06T01:13:35.468Z,48.97
2018-03-06T01:16:04.502Z,41.50
2018-03-06T01:18:32.803Z,47.37
2018-03-06T01:21:01.537Z,47.00
2018-03-06T01:23:29.836Z,42.63
2018-03-06T01:25:58.154Z,44.87
2018-03-06T01:28:26.419Z,47.30
2018-03-06T01:30:54.733Z,44.67
2018-03-06T01:33:23.767Z,40.40
2018-03-06T01:35:52.044Z,42.27
2018-03-06T01:38:20.331Z,39.27
2018-03-06T01:40:48.605Z,44.10
2018-03-06T01:43:17.011Z,42.93
2018-03-06T01:45:45.291Z,40.87
2018-03-06T01:48:13.587Z,41.13
2018-03-06T01:50:41.873Z,42.23
2018-03-06T01:53:10.942Z,46.87
2018-03-06T01:55:39.250Z,54.87
2018-03-06T01:58:08.287Z,53.67
2018-03-06T02:00:36.592Z,40.67
2018-03-06T02:03:04.972Z,51.77
2018-03-06T02:05:33.287Z,51.23
2018-03-06T02:08:01.587Z,50.23
2018-03-06T02:10:29.864Z,51.13
2018-03-06T02:12:58.201Z,51.20
2018-03-06T02:15:27.247Z,47.80
2018-03-06T02:17:55.541Z,46.93
2018-03-06T02:20:23.816Z,41.57
2018-03-06T02:22:52.085Z,46.43
2018-03-06T02:25:20.377Z,45.03
2018-03-06T02:27:48.670Z,43.83
2018-03-06T02:30:16.979Z,44.07
2018-03-06T02:32:46.017Z,43.73
2018-03-06T02:35:14.281Z,49.07
2018-03-06T02:37:42.594Z,45.50
2018-03-06T02:40:10.870Z,47.63
2018-03-06T02:42:39.167Z,46.23
2018-03-06T02:45:08.229Z,45.83
2018-03-06T02:47:36.527Z,47.33
2018-03-06T02:50:04.796Z,49.90
2018-03-06T02:52:33.076Z,55.23
2018-03-06T02:55:01.451Z,53.07
2018-03-06T02:57:29.726Z,40.77
2018-03-06T02:59:58.112Z,57.20
2018-03-06T03:02:26.431Z,44.30
2018-03-06T03:04:54.731Z,55.57
2018-03-06T03:07:23.012Z,40.70
2018-03-06T03:09:51.284Z,53.30
2018-03-06T03:12:19.611Z,45.90
2018-03-06T03:14:48.691Z,44.70
2018-03-06T03:17:16.992Z,60.97
2018-03-06T03:19:46.031Z,53.50
2018-03-06T03:22:14.303Z,50.00
2018-03-06T03:24:42.598Z,45.60
2018-03-06T03:27:10.894Z,53.63
2018-03-06T03:29:39.200Z,47.63
2018-03-06T03:32:08.272Z,49.80
2018-03-06T03:34:36.531Z,52.17
2018-03-06T03:37:04.921Z,55.17
2018-03-06T03:39:33.204Z,56.10
2018-03-06T03:42:01.515Z,46.07
2018-03-06T03:44:29.802Z,57.57
2018-03-06T03:46:58.079Z,51.37
2018-03-06T03:49:26.371Z,47.23
2018-03-06T03:51:55.750Z,51.37
2018-03-06T03:54:24.044Z,53.63
2018-03-06T03:56:52.331Z,49.27
2018-03-06T03:59:20.654Z,48.10
2018-03-06T04:01:49.044Z,53.90
2018-03-06T04:04:18.132Z,43.20
2018-03-06T04:06:46.376Z,56.30
2018-03-06T04:09:14.675Z,48.37
2018-03-06T04:11:43.052Z,51.23
2018-03-06T04:14:11.540Z,65.80
2018-03-06T04:16:39.807Z,49.43
2018-03-06T04:19:08.099Z,62.20
2018-03-06T04:21:36.376Z,50.87
2018-03-06T04:24:04.674Z,55.83
2018-03-06T04:26:33.711Z,48.87
2018-03-06T04:29:02.020Z,49.53
2018-03-06T04:31:30.297Z,47.40
2018-03-06T04:33:58.574Z,53.77
2018-03-06T04:36:26.892Z,53.20
2018-03-06T04:38:55.928Z,58.20
2018-03-06T04:41:24.231Z,51.37
2018-03-06T04:43:53.298Z,51.67
2018-03-06T04:46:21.587Z,54.03
2018-03-06T04:48:49.872Z,63.27
2018-03-06T04:51:18.263Z,55.60
2018-03-06T04:53:46.555Z,50.33
2018-03-06T04:56:15.603Z,50.83
2018-03-06T04:58:43.969Z,49.23
2018-03-06T05:01:12.293Z,49.77
2018-03-06T05:03:40.588Z,51.73
2018-03-06T05:06:09.762Z,47.40
2018-03-06T05:08:38.039Z,53.13
2018-03-06T05:11:06.524Z,58.37
2018-03-06T05:13:34.813Z,58.67
2018-03-06T05:16:03.120Z,46.77
2018-03-06T05:18:31.399Z,53.60
2018-03-06T05:20:59.684Z,55.73
2018-03-06T05:23:27.988Z,48.33
2018-03-06T05:25:56.297Z,53.77
2018-03-06T05:28:25.383Z,49.17
2018-03-06T05:30:54.434Z,54.60
2018-03-06T05:33:22.857Z,54.47
2018-03-06T05:35:51.155Z,49.13
2018-03-06T05:38:19.857Z,58.37
2018-03-06T05:40:48.911Z,64.43
2018-03-06T05:43:17.204Z,45.13
2018-03-06T05:45:45.520Z,62.03
2018-03-06T05:48:13.860Z,54.80
2018-03-06T05:50:42.144Z,58.37
2018-03-06T05:53:11.202Z,61.20
2018-03-06T05:55:39.533Z,51.40
2018-03-06T05:58:08.698Z,54.73
2018-03-06T06:00:36.974Z,60.47
2018-03-06T06:03:06.080Z,58.27
2018-03-06T06:05:34.476Z,60.53
2018-03-06T06:08:03.653Z,51.27
2018-03-06T06:10:33.567Z,50.70
2018-03-06T06:13:01.872Z,53.20
2018-03-06T06:15:30.911Z,63.10
2018-03-06T06:17:59.173Z,66.40
2018-03-06T06:20:27.473Z,54.10
2018-03-06T06:22:55.748Z,65.23
2018-03-06T06:25:24.043Z,60.00
2018-03-06T06:27:52.339Z,65.77
2018-03-06T06:30:20.625Z,55.90
2018-03-06T06:32:48.901Z,57.70
2018-03-06T06:35:17.258Z,62.80
2018-03-06T06:37:45.641Z,70.47
2018-03-06T06:40:14.018Z,57.43
2018-03-06T06:42:42.301Z,58.47
2018-03-06T06:45:11.336Z,70.87
2018-03-06T06:47:39.624Z,62.00
2018-03-06T06:50:07.886Z,57.60
2018-03-06T06:52:36.167Z,50.53
2018-03-06T06:55:04.437Z,65.87
2018-03-06T06:57:33.524Z,51.63
2018-03-06T07:00:01.755Z,48.53
2018-03-06T07:02:30.036Z,57.83
2018-03-06T07:04:58.347Z,54.80
2018-03-06T07:07:26.623Z,54.90
2018-03-06T07:09:54.920Z,61.40
2018-03-06T07:12:23.947Z,61.20
2018-03-06T07:14:52.211Z,59.73
2018-03-06T07:17:20.500Z,60.50
2018-03-06T07:19:48.788Z,64.50
2018-03-06T07:22:17.072Z,55.30
2018-03-06T07:24:45.371Z,58.60
2018-03-06T07:27:13.655Z,57.80
2018-03-06T07:29:41.939Z,61.17
2018-03-06T07:32:10.295Z,64.73
2018-03-06T07:34:38.543Z,58.37
2018-03-06T07:37:06.831Z,53.57
2018-03-06T07:39:35.107Z,48.40
2018-03-06T07:42:03.384Z,49.77
2018-03-06T07:44:31.675Z,54.30
2018-03-06T07:46:59.936Z,57.00
2018-03-06T07:49:28.247Z,64.50
2018-03-06T07:51:56.614Z,72.80
2018-03-06T07:54:24.889Z,51.93
2018-03-06T07:56:53.159Z,54.57
2018-03-06T07:59:21.759Z,57.87
2018-03-06T08:01:50.827Z,57.30
2018-03-06T08:04:19.092Z,64.80
2018-03-06T08:06:47.387Z,62.73
2018-03-06T08:09:15.652Z,62.13
2018-03-06T08:11:43.960Z,46.67
2018-03-06T08:14:12.222Z,56.63
2018-03-06T08:16:40.484Z,52.73
2018-03-06T08:19:08.884Z,55.90
2018-03-06T08:21:37.189Z,61.40
2018-03-06T08:24:05.456Z,51.87
2018-03-06T08:26:35.248Z,47.30
2018-03-06T08:29:03.601Z,59.77
2018-03-06T08:31:31.879Z,59.33
2018-03-06T08:34:00.136Z,58.97
2018-03-06T08:36:28.485Z,52.67
2018-03-06T08:38:56.766Z,49.60
2018-03-06T08:41:25.806Z,56.43
2018-03-06T08:43:54.094Z,61.87
2018-03-06T08:46:22.363Z,62.23
2018-03-06T08:48:50.874Z,62.77
2018-03-06T08:51:19.158Z,50.87
2018-03-06T08:53:47.423Z,59.27
2018-03-06T08:56:15.735Z,58.77
2018-03-06T08:58:44.198Z,52.77
2018-03-06T09:01:12.476Z,54.20
2018-03-06T09:03:40.824Z,50.07
2018-03-06T09:06:09.231Z,64.47
2018-03-06T09:08:37.712Z,51.83
2018-03-06T09:11:05.997Z,57.53
2018-03-06T09:13:35.083Z,55.23
2018-03-06T09:16:03.374Z,69.90
2018-03-06T09:18:32.455Z,56.80
2018-03-06T09:21:00.835Z,52.07
2018-03-06T09:23:29.108Z,59.27
2018-03-06T09:25:57.490Z,51.67
2018-03-06T09:28:25.770Z,51.33
2018-03-06T09:30:54.051Z,56.37
2018-03-06T09:33:22.338Z,52.90
2018-03-06T09:35:52.148Z,56.27
2018-03-06T09:38:20.514Z,47.23
2018-03-06T09:40:48.759Z,50.17
2018-03-06T09:43:17.037Z,55.30
2018-03-06T09:45:51.133Z,55.93
2018-03-06T09:48:20.178Z,48.40
2018-03-06T09:50:48.557Z,57.33
2018-03-06T09:53:16.838Z,56.07
2018-03-06T09:55:45.867Z,54.90
2018-03-06T09:58:14.892Z,48.73
2018-03-06T10:00:43.173Z,56.30
2018-03-06T10:03:11.431Z,57.23
2018-03-06T10:05:39.720Z,50.37
2018-03-06T10:08:07.991Z,50.43
2018-03-06T10:10:36.307Z,63.07
2018-03-06T10:13:04.599Z,66.10
2018-03-06T10:15:33.667Z,52.50
2018-03-06T10:18:01.946Z,56.53
2018-03-06T10:20:30.236Z,60.80
2018-03-06T10:22:58.495Z,57.93
2018-03-06T10:25:26.823Z,51.50
2018-03-06T10:27:55.913Z,64.83
2018-03-06T10:30:24.205Z,56.50
2018-03-06T10:32:53.247Z,52.43
2018-03-06T10:35:21.538Z,53.87
2018-03-06T10:37:49.916Z,56.20
2018-03-06T10:40:18.163Z,48.93
2018-03-06T10:42:47.147Z,47.07
2018-03-06T10:45:15.423Z,50.13
2018-03-06T10:47:43.766Z,50.47
2018-03-06T10:50:12.837Z,47.87
2018-03-06T10:52:41.108Z,52.43
2018-03-06T10:55:09.419Z,61.50
2018-03-06T10:57:37.758Z,52.87
2018-03-06T11:00:06.016Z,50.40
2018-03-06T11:02:40.055Z,56.67
2018-03-06T11:05:08.315Z,59.43
2018-03-06T11:07:36.596Z,53.60
2018-03-06T11:10:04.868Z,62.80
2018-03-06T11:12:33.161Z,61.23
2018-03-06T11:15:01.417Z,60.53
2018-03-06T11:17:29.752Z,55.20
2018-03-06T11:19:59.508Z,66.47
2018-03-06T11:22:27.791Z,62.40
2018-03-06T11:24:56.053Z,60.70
2018-03-06T11:27:24.310Z,59.60
2018-03-06T11:29:53.374Z,50.60
2018-03-06T11:32:21.633Z,57.37
2018-03-06T11:34:50.333Z,55.00
2018-03-06T11:37:18.612Z,58.80
2018-03-06T11:39:47.083Z,58.93
2018-03-06T11:42:15.358Z,59.43
2018-03-06T11:44:43.745Z,59.90
2018-03-06T11:47:12.020Z,60.20
2018-03-06T11:49:40.285Z,66.10
2018-03-06T11:52:08.541Z,59.90
2018-03-06T11:54:36.820Z,59.97
2018-03-06T11:57:05.100Z,53.43
2018-03-06T11:59:33.381Z,58.50
2018-03-06T12:02:01.684Z,57.43
2018-03-06T12:04:30.162Z,53.17
2018-03-06T12:06:58.439Z,52.83
2018-03-06T12:09:26.693Z,48.93
2018-03-06T12:11:54.980Z,55.43
2018-03-06T12:14:23.693Z,54.70
2018-03-06T12:16:53.463Z,54.53
2018-03-06T12:19:21.739Z,54.43
2018-03-06T12:21:50.043Z,57.00
2018-03-06T12:24:18.324Z,63.43
2018-03-06T12:26:46.602Z,57.40
2018-03-06T12:29:14.883Z,53.30
2018-03-06T12:31:43.155Z,58.43
2018-03-06T12:34:11.417Z,54.20
2018-03-06T12:36:39.704Z,60.53
2018-03-06T12:39:07.974Z,59.37
2018-03-06T12:41:36.265Z,64.63
2018-03-06T12:44:04.520Z,64.67
2018-03-06T12:46:32.787Z,64.57
2018-03-06T12:49:01.112Z,61.83
2018-03-06T12:51:29.373Z,62.50
2018-03-06T12:53:57.755Z,60.03
2018-03-06T12:56:26.004Z,69.87
2018-03-06T12:58:54.331Z,62.17
2018-03-06T13:01:23.606Z,52.87
2018-03-06T13:03:51.859Z,60.50
2018-03-06T13:06:20.161Z,59.07
2018-03-06T13:08:48.412Z,56.80
2018-03-06T13:11:16.725Z,61.50
2018-03-06T13:13:44.996Z,62.93
2018-03-06T13:16:13.278Z,70.37
2018-03-06T13:18:41.752Z,62.13
2018-03-06T13:21:10.029Z,60.60
2018-03-06T13:23:38.323Z,56.20
2018-03-06T13:26:06.584Z,66.67
2018-03-06T13:28:34.875Z,59.10
2018-03-06T13:31:03.229Z,65.77
2018-03-06T13:33:31.499Z,69.17
2018-03-06T13:35:59.772Z,69.77
2018-03-06T13:38:28.172Z,72.67
2018-03-06T13:40:56.477Z,69.13
2018-03-06T13:43:24.889Z,69.10
2018-03-06T13:45:53.161Z,77.30
2018-03-06T13:48:21.420Z,74.57
2018-03-06T13:50:50.455Z,76.53
2018-03-06T13:53:18.765Z,88.80
2018-03-06T13:55:47.136Z,87.37
2018-03-06T13:58:15.413Z,80.67
2018-03-06T14:00:43.797Z,82.27
2018-03-06T14:03:12.052Z,94.33
2018-03-06T14:05:40.311Z,92.40
2018-03-06T14:08:08.604Z,99.30
2018-03-06T14:10:36.903Z,90.70
2018-03-06T14:13:05.275Z,99.93
2018-03-06T14:15:33.660Z,84.70
2018-03-06T14:18:02.047Z,95.00
2018-03-06T14:20:30.425Z,102.47
2018-03-06T14:22:58.798Z,106.17
2018-03-06T14:25:27.151Z,98.00
2018-03-06T14:27:55.556Z,99.00
2018-03-06T14:30:23.828Z,90.83
2018-03-06T14:32:52.092Z,108.60
2018-03-06T14:35:20.376Z,105.37
2018-03-06T14:37:48.670Z,104.07
2018-03-06T14:40:16.934Z,96.67
2018-03-06T14:42:45.214Z,98.30
2018-03-06T14:45:13.498Z,95.47
2018-03-06T14:47:41.756Z,87.07
2018-03-06T14:50:10.044Z,100.90
2018-03-06T14:52:38.339Z,98.80
2018-03-06T14:55:06.637Z,95.07
2018-03-06T14:57:36.443Z,92.50
2018-03-06T15:00:05.617Z,103.30
2018-03-06T15:02:33.897Z,78.13
2018-03-06T15:05:02.160Z,94.77
2018-03-06T15:07:30.548Z,85.97
2018-03-06T15:09:58.807Z,92.27
2018-03-06T15:12:27.207Z,86.73
2018-03-06T15:14:55.466Z,87.27
2018-03-06T15:17:23.740Z,87.40
2018-03-06T15:19:52.004Z,82.87
2018-03-06T15:22:20.304Z,88.37
2018-03-06T15:24:48.596Z,83.20
2018-03-06T15:27:16.978Z,87.87
2018-03-06T15:29:45.225Z,101.07
2018-03-06T15:32:13.530Z,89.33
2018-03-06T15:34:41.805Z,86.43
2018-03-06T15:37:10.284Z,91.47
2018-03-06T15:39:38.562Z,94.97
2018-03-06T15:42:06.841Z,101.73
2018-03-06T15:44:35.136Z,85.00
2018-03-06T15:47:04.899Z,88.37
2018-03-06T15:49:33.225Z,86.70
2018-03-06T15:52:02.265Z,97.70
2018-03-06T15:54:30.571Z,104.17
2018-03-06T15:56:58.832Z,103.13
2018-03-06T15:59:27.135Z,107.17
2018-03-06T16:01:55.444Z,92.40
2018-03-06T16:04:24.511Z,110.83
2018-03-06T16:06:52.888Z,107.60
2018-03-06T16:09:21.162Z,99.53
2018-03-06T16:11:49.456Z,101.17
2018-03-06T16:14:18.484Z,89.13
2018-03-06T16:16:46.751Z,102.10
2018-03-06T16:19:15.843Z,96.93
2018-03-06T16:21:44.083Z,115.40
2018-03-06T16:24:12.376Z,116.40
2018-03-06T16:26:42.277Z,92.10
2018-03-06T16:29:10.585Z,111.30
2018-03-06T16:31:39.041Z,129.43
2018-03-06T16:34:07.320Z,119.03
2018-03-06T16:36:35.593Z,121.20
2018-03-06T16:39:03.903Z,110.30
2018-03-06T16:41:32.936Z,115.57
2018-03-06T16:44:01.231Z,113.17
2018-03-06T16:46:29.623Z,115.47
2018-03-06T16:48:57.993Z,120.17
2018-03-06T16:51:26.268Z,124.17
2018-03-06T16:53:54.556Z,117.83
2018-03-06T16:56:22.831Z,131.40
2018-03-06T16:58:51.199Z,121.23
2018-03-06T17:01:19.513Z,127.37
2018-03-06T17:03:48.705Z,120.37
2018-03-06T17:06:17.760Z,114.27
2018-03-06T17:08:46.037Z,119.87
2018-03-06T17:11:14.321Z,128.57
2018-03-06T17:13:42.607Z,131.90
2018-03-06T17:16:10.896Z,124.50
2018-03-06T17:18:39.274Z,121.80
2018-03-06T17:21:07.652Z,137.30
2018-03-06T17:23:35.936Z,126.67
2018-03-06T17:26:04.224Z,134.70
2018-03-06T17:28:33.275Z,119.17
2018-03-06T17:31:01.684Z,132.90
2018-03-06T17:33:29.972Z,126.63
2018-03-06T17:35:58.293Z,151.27
2018-03-06T17:38:26.584Z,125.63
2018-03-06T17:40:54.897Z,128.10
2018-03-06T17:43:23.286Z,121.30
2018-03-06T17:45:52.455Z,143.03
2018-03-06T17:48:20.744Z,131.80
2018-03-06T17:50:49.015Z,122.67
2018-03-06T17:53:17.320Z,139.37
2018-03-06T17:55:45.601Z,129.37
2018-03-06T17:58:14.685Z,134.37
2018-03-06T18:00:43.723Z,124.50
2018-03-06T18:03:12.019Z,124.70
2018-03-06T18:05:40.322Z,127.37
2018-03-06T18:08:08.624Z,110.20
2018-03-06T18:10:37.703Z,114.33
2018-03-06T18:13:05.978Z,121.70
2018-03-06T18:15:34.256Z,126.20
2018-03-06T18:18:02.542Z,131.40
2018-03-06T18:20:30.934Z,136.57
2018-03-06T18:22:59.289Z,122.90
2018-03-06T18:25:27.672Z,110.00
2018-03-06T18:27:55.944Z,113.17
2018-03-06T18:30:24.232Z,117.40
2018-03-06T18:32:52.508Z,98.53
2018-03-06T18:35:20.800Z,108.87
2018-03-06T18:37:49.077Z,110.70
2018-03-06T18:40:18.134Z,119.67
2018-03-06T18:42:46.425Z,93.53
2018-03-06T18:45:14.708Z,108.63
2018-03-06T18:47:42.989Z,105.87
2018-03-06T18:50:23.344Z,97.20
2018-03-06T18:52:51.597Z,97.00
2018-03-06T18:55:20.000Z,104.57
2018-03-06T18:57:48.277Z,100.60
2018-03-06T19:03:36.984Z,87.93
2018-03-06T19:06:17.999Z,90.23
2018-03-06T19:08:46.260Z,85.47
2018-03-06T19:11:14.552Z,97.20
2018-03-06T19:13:42.812Z,75.70
2018-03-06T19:16:11.101Z,104.83
2018-03-06T19:18:39.363Z,92.57
2018-03-06T19:21:07.658Z,98.07
2018-03-06T19:23:35.924Z,87.43
2018-03-06T19:26:04.361Z,88.53
2018-03-06T19:28:32.620Z,89.90
2018-03-06T19:31:01.028Z,94.63
2018-03-06T19:33:29.346Z,89.13
2018-03-06T19:35:57.664Z,90.43
2018-03-06T19:38:25.940Z,76.47
2018-03-06T19:40:54.203Z,90.57
2018-03-06T19:43:22.524Z,96.90
2018-03-06T19:45:50.997Z,77.37
2018-03-06T19:48:19.272Z,81.93
2018-03-06T19:50:47.608Z,71.27
2018-03-06T19:53:15.930Z,68.77
2018-03-06T19:55:44.215Z,83.53
2018-03-06T19:58:12.525Z,71.37
2018-03-06T20:00:40.788Z,63.23
2018-03-06T20:03:09.075Z,70.27
2018-03-06T20:05:37.344Z,68.00
2018-03-06T20:08:05.780Z,72.73
2018-03-06T20:10:34.068Z,55.60
2018-03-06T20:13:02.351Z,65.40
2018-03-06T20:15:30.630Z,64.40
2018-03-06T20:17:58.904Z,65.67
2018-03-06T20:20:27.187Z,62.17
2018-03-06T20:22:56.228Z,66.83
2018-03-06T20:25:30.343Z,73.60
2018-03-06T20:27:58.608Z,67.50
2018-03-06T20:30:32.526Z,73.30
2018-03-06T20:33:06.402Z,67.67
2018-03-06T20:35:35.479Z,61.17
2018-03-06T20:38:03.763Z,70.80
2018-03-06T20:40:33.831Z,61.23
2018-03-06T20:43:02.100Z,58.00
2018-03-06T20:45:36.160Z,72.47
2018-03-06T20:48:04.735Z,59.87
2018-03-06T20:50:33.962Z,73.33
2018-03-06T20:53:08.036Z,58.87
2018-03-06T20:55:36.425Z,58.83
2018-03-06T20:58:04.807Z,66.67
2018-03-06T21:00:33.216Z,68.70
2018-03-06T21:03:01.484Z,62.70
2018-03-06T21:05:30.544Z,63.20
2018-03-06T21:07:58.909Z,58.57
2018-03-06T21:10:27.224Z,57.43
2018-03-06T21:12:55.507Z,51.70
2018-03-06T21:15:23.854Z,57.43
2018-03-06T21:17:52.151Z,55.17
2018-03-06T21:20:20.421Z,48.77
2018-03-06T21:22:48.705Z,51.63
2018-03-06T21:25:16.985Z,53.83
2018-03-06T21:27:46.788Z,44.40
2018-03-06T21:30:15.185Z,48.13
2018-03-06T21:32:43.516Z,43.37
2018-03-06T21:35:11.772Z,39.13
2018-03-06T21:37:40.926Z,36.13
2018-03-06T21:40:09.184Z,42.37
2018-03-06T21:42:37.481Z,37.63
2018-03-06T21:45:05.860Z,48.37
2018-03-06T21:47:34.133Z,43.83
2018-03-06T21:50:02.454Z,51.40
2018-03-06T21:52:31.514Z,46.40
2018-03-06T21:55:00.676Z,41.50
2018-03-06T21:57:28.944Z,45.10
2018-03-06T21:59:57.363Z,45.80
2018-03-06T22:02:25.613Z,49.23
2018-03-06T22:04:53.916Z,40.33
2018-03-06T22:07:22.191Z,45.20
2018-03-06T22:09:50.574Z,40.03
2018-03-06T22:12:18.843Z,42.97
2018-03-06T22:14:47.232Z,39.27
2018-03-06T22:17:15.512Z,42.30
2018-03-06T22:19:43.895Z,40.40
2018-03-06T22:22:12.191Z,42.57
2018-03-06T22:24:41.216Z,38.03
2018-03-06T22:27:09.505Z,42.10
2018-03-06T22:29:37.767Z,38.43
2018-03-06T22:32:06.094Z,46.10
2018-03-06T22:34:34.474Z,36.67
2018-03-06T22:37:02.752Z,39.13
2018-03-06T22:39:31.145Z,40.73
2018-03-06T22:42:00.189Z,44.60
2018-03-06T22:44:28.465Z,38.00
2018-03-06T22:46:56.723Z,39.93
2018-03-06T22:49:25.072Z,43.80
2018-03-06T22:51:54.124Z,37.80
2018-03-06T22:54:22.403Z,37.47
2018-03-06T22:56:50.692Z,43.87
2018-03-06T22:59:18.984Z,42.60
2018-03-06T23:01:47.266Z,44.30
2018-03-06T23:04:15.541Z,39.73
2018-03-06T23:06:43.917Z,41.93
2018-03-06T23:09:12.193Z,35.53
2018-03-06T23:11:40.572Z,44.80
2018-03-06T23:14:08.847Z,44.27
2018-03-06T23:16:37.129Z,40.53
2018-03-06T23:19:05.436Z,48.97
2018-03-06T23:21:34.499Z,38.13
2018-03-06T23:24:02.824Z,38.77
2018-03-06T23:26:31.989Z,38.07
2018-03-06T23:29:00.356Z,38.80
2018-03-06T23:31:28.625Z,37.93
2018-03-06T23:33:56.910Z,45.57
2018-03-06T23:36:25.398Z,37.00
2018-03-06T23:38:53.738Z,34.13
2018-03-06T23:41:22.154Z,39.80
2018-03-06T23:43:50.533Z,35.93
2018-03-06T23:46:18.868Z,40.33
2018-03-06T23:48:47.137Z,35.10
2018-03-06T23:51:15.438Z,46.10
2018-03-06T23:53:43.848Z,42.17
2018-03-06T23:56:12.133Z,43.67
2018-03-06T23:58:40.466Z,43.13
